La Grande Rivière Airport
CYGL : now visible

Airfield :











YOU CAN JOIN US ON...

 
LOGIN :

Register | Disclaimer

   EN    FR    IT 

 









Legend :    VFR   Marginal VFR   IFR   Intensive IFR   Very Intensive IFR
Visi :
Ceiling :
>= 8 km
>= 3000ft
5 to 8 km
1000 to 3000 ft
1500m to 5 km
500 to 1000 ft
800 to 1500m
200 to 500 ft
< 800m
< 200 ft
Symbols :   Thunderstorms  Fog  Heavy snow  Heavy precipitations  Wind > 20 kt






- Airport Elevation : 639 ft
- IATA code : YGL


CYGL - La Grande Rivière

CURRENT METAR :
  • 101000Z 10014KT 15SM FEW110 SCT240 02/M05 A2988 RMK AC1CI4 AC TR SLP132

EXPIRED METARs :
  • 100900Z 10014KT 15SM FEW110 02/M05 A2989 RMK AC1 AC TR SLP135
  • 100800Z 10015G20KT 15SM SKC 03/M05 A2990 RMK SLP138

TAF TAF CYGL
Valid from the 10 at 06:00 until the 11 at 06:00 UTC


100542Z 1006/1106 10015G25KT P6SM FEW110
FM101000 10012KT P6SM FEW015 BKN050
TEMPO 1010/1014 BKN010 OVC050
FM101400 09015G25KT P6SM SCT015 OVC050
TEMPO 1014/1020 P6SM -SHRA
FM110000 09015G25KT P6SM OVC015
FM110200 11015G25KT 4SM -SHRA BR BKN008 OVC015 RMK NXT FCST BY 101200Z
CZUL FIR / North America



MET'MAP, your aeronautical weather chart ! - Copyright ORBIFLY December 2007 - Disclaimer

ORBIFLY MET'MAP TEAM :

Programming & Development : Alexandra Zaïnal
Concept & original design : Baudouin d'Aumeries
Assistance for programming : Marc-Olivier Méhu
Technical & hardware support : Manuel Goepfert

Contact : metmap@orbifly.com




SOURCES & CREDITS :

   NOAA       Earth
Advisory